1.500 kWh

EHAM AMSTERDAM/SCHIPHOL NLD -3 m.
METAR EHAM 201225Z 07005KT 040V100 CAVOK 03/M06 Q1018 NOSIG

EHAM AMSTERDAM/SCHIPHOL NLD -3 m.
TAF EHAM 201119Z 2012/2118 08005KT CAVOK
BECMG 2100/2103 22003KT 7000 MIFG
PROB30 TEMPO 2104/2108 1200 BCFG
BECMG 2108/2111 CAVOK
BECMG 2112/2115 20008KT BKN025